Time;durP1;ratioP1;P1;durP2;ratioP2;P2;SDS_P1;SDS_P2;PMS_P1;PMS_P2;Temp;Humidity;BMP_temperature;BMP_pressure;BME280_temperature;BME280_humidity;BME280_pressure;Samples;Min_cycle;Max_cycle;Signal;HPM_P1;HPM_P2
2023/08/10 00:00:24;;;;;;;7.55;2.42;;;15.30;99.90;;;;;;4971211;28;20063;-74
2023/08/10 00:02:51;;;;;;;9.32;2.70;;;15.30;99.90;;;;;;4976786;28;20487;-74
2023/08/10 00:05:16;;;;;;;6.13;2.38;;;15.30;99.90;;;;;;4973514;28;20493;-74
2023/08/10 00:07:42;;;;;;;7.05;2.45;;;15.30;99.90;;;;;;4961453;28;20046;-74
2023/08/10 00:10:08;;;;;;;9.80;2.55;;;15.30;99.90;;;;;;4983100;28;20186;-74
2023/08/10 00:12:36;;;;;;;7.25;2.40;;;15.30;99.90;;;;;;4961030;28;20050;-74
2023/08/10 00:15:02;;;;;;;8.98;3.20;;;15.30;99.90;;;;;;4983323;28;20046;-75
2023/08/10 00:17:29;;;;;;;6.57;3.03;;;15.30;99.90;;;;;;4981581;28;20042;-74
2023/08/10 00:19:54;;;;;;;8.68;2.72;;;15.30;99.90;;;;;;4979054;28;20046;-74
2023/08/10 00:22:20;;;;;;;8.85;2.72;;;15.20;99.90;;;;;;4973283;28;20101;-74
2023/08/10 00:24:47;;;;;;;5.50;2.15;;;15.20;99.90;;;;;;4970649;28;20073;-73
2023/08/10 00:27:13;;;;;;;7.30;2.22;;;15.20;99.90;;;;;;4970209;28;20541;-74
2023/08/10 00:29:38;;;;;;;6.28;2.50;;;15.20;99.90;;;;;;4985685;28;20141;-73
2023/08/10 00:32:04;;;;;;;6.78;2.67;;;15.20;99.90;;;;;;4977611;28;20082;-73
2023/08/10 00:34:29;;;;;;;6.22;2.20;;;15.10;99.90;;;;;;4986121;28;20038;-73
2023/08/10 00:36:55;;;;;;;5.63;2.53;;;15.10;99.90;;;;;;4985155;28;20030;-74
2023/08/10 00:39:21;;;;;;;6.35;2.30;;;15.10;99.90;;;;;;4980926;28;20237;-74
2023/08/10 00:41:46;;;;;;;9.10;2.40;;;15.00;99.90;;;;;;4970782;28;20623;-74
2023/08/10 00:44:13;;;;;;;8.30;2.35;;;15.10;99.90;;;;;;4983109;28;20061;-73
2023/08/10 00:46:39;;;;;;;6.63;2.45;;;15.00;99.90;;;;;;4973821;28;20109;-73
2023/08/10 00:49:05;;;;;;;5.18;2.40;;;15.00;99.90;;;;;;4978205;28;20477;-74
2023/08/10 00:51:31;;;;;;;9.55;3.13;;;14.90;99.90;;;;;;4984579;28;20461;-73
2023/08/10 00:53:57;;;;;;;6.25;2.85;;;14.90;99.90;;;;;;4974915;28;20109;-74
2023/08/10 00:56:23;;;;;;;4.68;2.20;;;14.90;99.90;;;;;;4974460;28;20085;-73
2023/08/10 00:58:50;;;;;;;6.70;2.40;;;14.80;99.90;;;;;;4992027;28;20474;-74
2023/08/10 01:01:15;;;;;;;8.35;2.40;;;14.80;99.90;;;;;;4988214;28;20066;-74
2023/08/10 01:03:41;;;;;;;4.20;2.20;;;14.70;99.90;;;;;;4979410;28;20042;-74
2023/08/10 01:06:37;;;;;;;4.15;1.95;;;14.70;99.90;;;;;;4982207;28;20420;-74
2023/08/10 01:09:22;;;;;;;6.30;2.55;;;14.70;99.90;;;;;;4981414;28;20097;-74
2023/08/10 01:12:06;;;;;;;6.25;2.00;;;14.70;99.90;;;;;;4982767;28;20042;-74
2023/08/10 01:15:02;;;;;;;8.15;2.95;;;14.70;99.90;;;;;;4978943;28;20109;-74
2023/08/10 01:17:29;;;;;;;9.20;2.63;;;14.60;99.90;;;;;;4991185;28;20129;-74
2023/08/10 01:19:59;;;;;;;7.85;2.38;;;14.60;99.90;;;;;;4966038;28;20038;-74
2023/08/10 01:22:45;;;;;;;4.43;2.20;;;14.60;99.90;;;;;;4967054;28;20477;-74
2023/08/10 01:25:11;;;;;;;5.18;2.22;;;14.60;99.90;;;;;;4948985;28;20054;-73
2023/08/10 01:27:38;;;;;;;6.47;2.33;;;14.60;99.90;;;;;;4967146;28;20502;-73
2023/08/10 01:30:04;;;;;;;5.40;2.10;;;14.60;99.90;;;;;;4980819;28;20083;-74
2023/08/10 01:32:32;;;;;;;5.15;2.15;;;14.60;99.90;;;;;;4986338;28;20042;-74
2023/08/10 01:34:58;;;;;;;;;;;14.60;99.90;;;;;;4982983;28;20038;-73
2023/08/10 01:37:24;;;;;;;8.18;2.72;;;14.60;99.90;;;;;;4983852;28;20004;-73
2023/08/10 01:39:50;;;;;;;6.13;2.40;;;14.60;99.90;;;;;;4979842;28;20042;-74
2023/08/10 01:42:16;;;;;;;5.47;2.30;;;14.60;99.90;;;;;;4985494;28;20042;-74
2023/08/10 01:44:42;;;;;;;5.80;2.20;;;14.60;99.90;;;;;;4986542;28;20138;-73
2023/08/10 01:47:34;;;;;;;7.05;2.83;;;14.60;99.90;;;;;;4966581;28;20082;-74
2023/08/10 01:50:03;;;;;;;5.28;2.55;;;14.60;99.90;;;;;;4980010;28;20088;-74
2023/08/10 01:52:33;;;;;;;8.55;2.90;;;14.60;99.90;;;;;;4982130;28;20857;-74
2023/08/10 01:54:59;;;;;;;6.00;2.55;;;14.60;99.90;;;;;;4959009;28;20643;-74
2023/08/10 01:57:28;;;;;;;5.00;2.55;;;14.60;99.90;;;;;;4966534;28;20123;-74
2023/08/10 01:59:54;;;;;;;6.50;2.70;;;14.60;99.90;;;;;;4986161;28;20050;-74
2023/08/10 02:02:20;;;;;;;8.32;2.72;;;14.60;99.90;;;;;;4975866;28;20488;-74
2023/08/10 02:04:45;;;;;;;5.43;2.35;;;14.70;99.90;;;;;;4981693;28;20560;-74
2023/08/10 02:07:11;;;;;;;3.85;2.08;;;14.60;99.90;;;;;;4974764;28;20104;-74
2023/08/10 02:09:38;;;;;;;9.13;2.53;;;14.60;99.90;;;;;;4985942;28;20045;-73
2023/08/10 02:12:03;;;;;;;7.73;2.60;;;14.60;99.90;;;;;;4978978;28;20041;-73
2023/08/10 02:14:29;;;;;;;7.68;2.70;;;14.60;99.90;;;;;;4989533;28;20046;-74
2023/08/10 02:16:55;;;;;;;6.13;2.50;;;14.60;99.90;;;;;;4966872;28;20170;-74
2023/08/10 02:19:21;;;;;;;7.43;2.55;;;14.60;99.90;;;;;;4980845;28;20042;-73
2023/08/10 02:21:46;;;;;;;7.75;3.00;;;14.60;99.90;;;;;;4966397;28;20049;-74
2023/08/10 02:24:12;;;;;;;7.97;2.63;;;14.60;99.90;;;;;;4983055;28;20053;-74
2023/08/10 02:26:38;;;;;;;6.78;2.70;;;14.60;99.90;;;;;;4978236;28;20142;-74
2023/08/10 02:29:03;;;;;;;4.57;2.72;;;14.60;99.90;;;;;;4978801;28;20046;-74
2023/08/10 02:31:31;;;;;;;5.20;2.80;;;14.70;99.90;;;;;;4984602;28;20042;-74
2023/08/10 02:33:56;;;;;;;6.03;2.53;;;14.70;99.90;;;;;;4984890;28;20129;-74
2023/08/10 02:36:22;;;;;;;9.90;2.92;;;14.70;99.90;;;;;;4986369;28;20046;-74
2023/08/10 02:38:48;;;;;;;4.03;2.30;;;14.70;99.90;;;;;;4974792;28;20042;-74
2023/08/10 02:41:14;;;;;;;4.60;2.70;;;14.60;99.90;;;;;;4989817;28;20039;-74
2023/08/10 02:43:40;;;;;;;9.20;3.05;;;14.60;99.90;;;;;;4985732;28;20049;-74
2023/08/10 02:46:05;;;;;;;7.22;2.67;;;14.60;99.90;;;;;;4964362;28;20209;-74
2023/08/10 02:48:31;;;;;;;6.68;3.10;;;14.60;99.90;;;;;;4986951;28;20061;-74
2023/08/10 02:50:57;;;;;;;8.13;3.13;;;14.60;99.90;;;;;;4970866;28;20365;-74
2023/08/10 02:53:23;;;;;;;5.90;2.90;;;14.50;99.90;;;;;;4986327;28;20169;-73
2023/08/10 02:55:48;;;;;;;6.30;2.78;;;14.50;99.90;;;;;;4979958;28;20051;-74
2023/08/10 02:58:14;;;;;;;4.32;2.92;;;14.50;99.90;;;;;;4969352;28;20045;-74
2023/08/10 03:00:41;;;;;;;8.77;3.53;;;14.40;99.90;;;;;;4984155;28;20054;-74
2023/08/10 03:03:07;;;;;;;7.00;3.00;;;14.40;99.90;;;;;;4987095;28;20184;-74
2023/08/10 03:05:33;;;;;;;6.75;3.13;;;14.40;99.90;;;;;;4983065;28;20116;-74
2023/08/10 03:07:58;;;;;;;6.55;3.25;;;14.30;99.90;;;;;;4985679;28;20717;-74
2023/08/10 03:10:24;;;;;;;6.40;2.80;;;14.30;99.90;;;;;;4976114;28;20047;-74
2023/08/10 03:12:50;;;;;;;6.70;3.05;;;14.30;99.90;;;;;;4979600;28;20128;-74
2023/08/10 03:15:15;;;;;;;6.72;3.15;;;14.30;99.90;;;;;;4966628;28;20050;-74
2023/08/10 03:17:41;;;;;;;7.47;3.22;;;14.30;99.90;;;;;;4980808;28;20409;-74
2023/08/10 03:20:13;;;;;;;7.20;3.60;;;14.20;99.90;;;;;;4983900;28;20042;-74
2023/08/10 03:22:39;;;;;;;7.45;3.45;;;14.20;99.90;;;;;;4987907;28;20537;-74
2023/08/10 03:25:06;;;;;;;9.18;3.67;;;14.30;99.90;;;;;;4974718;28;20053;-74
2023/08/10 03:27:32;;;;;;;7.20;3.30;;;14.30;99.90;;;;;;4985808;28;20053;-74
2023/08/10 03:29:57;;;;;;;10.07;3.60;;;14.30;99.90;;;;;;4980845;28;20042;-74
2023/08/10 03:32:23;;;;;;;9.30;3.50;;;14.30;99.90;;;;;;4983539;28;20042;-74
2023/08/10 03:34:49;;;;;;;6.30;3.35;;;14.30;99.90;;;;;;4977977;28;20049;-74
2023/08/10 03:37:15;;;;;;;7.07;3.60;;;14.30;99.90;;;;;;4975231;28;20043;-74
2023/08/10 03:39:40;;;;;;;9.77;4.07;;;14.40;99.90;;;;;;4983937;28;20058;-74
2023/08/10 03:42:06;;;;;;;7.13;3.58;;;14.30;99.90;;;;;;4981871;28;20057;-74
2023/08/10 03:44:32;;;;;;;7.45;3.70;;;14.30;99.90;;;;;;4968193;28;20104;-74
2023/08/10 03:46:58;;;;;;;7.78;3.70;;;14.30;99.90;;;;;;4964026;28;20510;-74
2023/08/10 03:49:24;;;;;;;8.48;3.70;;;14.30;99.90;;;;;;4991951;28;20060;-74
2023/08/10 03:51:51;;;;;;;8.60;4.03;;;14.30;99.90;;;;;;4984884;28;20530;-74
2023/08/10 03:54:17;;;;;;;7.65;4.10;;;14.30;99.90;;;;;;4975099;28;20552;-73
2023/08/10 03:56:43;;;;;;;7.20;3.72;;;14.30;99.90;;;;;;4979360;28;20148;-74
2023/08/10 03:59:10;;;;;;;8.93;4.20;;;14.30;99.90;;;;;;4988351;28;20442;-74
2023/08/10 04:01:35;;;;;;;6.63;3.90;;;14.30;99.90;;;;;;4979644;28;20046;-74
2023/08/10 04:04:01;;;;;;;8.40;4.20;;;14.30;99.90;;;;;;4979908;28;20309;-74
2023/08/10 04:06:27;;;;;;;8.48;4.28;;;14.30;99.90;;;;;;4983758;28;20137;-74
2023/08/10 04:08:53;;;;;;;10.05;4.00;;;14.30;99.90;;;;;;4981356;28;20057;-73
2023/08/10 04:11:19;;;;;;;8.30;4.00;;;14.30;99.90;;;;;;4978313;28;20066;-73
2023/08/10 04:13:46;;;;;;;8.32;4.45;;;14.30;99.90;;;;;;4971364;28;20041;-74
2023/08/10 04:16:12;;;;;;;8.57;4.40;;;14.40;99.90;;;;;;4978365;28;20051;-74
2023/08/10 04:18:38;;;;;;;8.25;4.45;;;14.30;99.90;;;;;;4985029;28;20299;-74
2023/08/10 04:21:04;;;;;;;9.52;4.57;;;14.30;99.90;;;;;;4976897;28;20129;-74
2023/08/10 04:23:30;;;;;;;9.68;4.45;;;14.40;99.90;;;;;;4971765;28;20122;-73
2023/08/10 04:25:56;;;;;;;8.40;4.20;;;14.40;99.90;;;;;;4979299;28;20093;-74
2023/08/10 04:28:23;;;;;;;7.63;4.38;;;14.40;99.90;;;;;;4983967;28;20309;-74
2023/08/10 04:30:48;;;;;;;10.82;4.70;;;14.40;99.90;;;;;;4967609;28;20062;-73
2023/08/10 04:33:14;;;;;;;7.63;4.47;;;14.50;99.90;;;;;;4969742;28;20038;-73
2023/08/10 04:35:40;;;;;;;8.07;4.50;;;14.50;99.90;;;;;;4976626;28;20047;-74
2023/08/10 04:38:06;;;;;;;8.68;4.80;;;14.50;99.90;;;;;;4982015;28;20557;-74
2023/08/10 04:40:31;;;;;;;8.77;4.80;;;14.50;99.90;;;;;;4967218;28;20042;-73
2023/08/10 04:43:00;;;;;;;9.18;5.25;;;14.50;99.90;;;;;;4974411;28;20078;-74
2023/08/10 04:45:26;;;;;;;12.70;5.20;;;14.50;99.90;;;;;;4979575;28;20069;-74
2023/08/10 04:47:51;;;;;;;9.00;4.88;;;14.50;99.90;;;;;;4978584;28;20050;-73
2023/08/10 04:50:17;;;;;;;9.23;4.85;;;14.50;99.90;;;;;;4982866;28;20113;-73
2023/08/10 04:52:43;;;;;;;10.32;4.65;;;14.50;99.90;;;;;;4961302;28;20589;-73
2023/08/10 04:55:10;;;;;;;8.70;4.78;;;14.50;99.90;;;;;;4967383;28;20070;-73
2023/08/10 04:57:37;;;;;;;;;;;14.50;99.90;;;;;;4979909;28;20148;-74
2023/08/10 05:00:09;;;;;;;7.90;5.13;;;14.50;99.90;;;;;;4978953;28;19921;-73
2023/08/10 05:02:35;;;;;;;8.40;4.90;;;14.60;99.90;;;;;;4984140;28;20570;-73
2023/08/10 05:05:01;;;;;;;7.45;4.88;;;14.60;99.90;;;;;;4979777;28;20077;-73
2023/08/10 05:07:27;;;;;;;8.80;4.90;;;14.70;99.90;;;;;;4982775;28;20157;-73
2023/08/10 05:09:53;;;;;;;11.23;5.07;;;14.70;99.90;;;;;;4977502;28;20070;-73
2023/08/10 05:12:19;;;;;;;10.77;5.03;;;14.70;99.90;;;;;;4974092;28;20467;-73
2023/08/10 05:14:44;;;;;;;9.32;5.03;;;14.80;99.90;;;;;;4982057;28;20054;-73
2023/08/10 05:17:10;;;;;;;8.70;5.15;;;14.80;99.90;;;;;;4985735;28;20067;-74
2023/08/10 05:19:36;;;;;;;11.43;4.80;;;14.80;99.90;;;;;;4977613;28;20046;-73
2023/08/10 05:22:02;;;;;;;8.32;4.82;;;14.80;99.90;;;;;;4983646;28;20035;-74
2023/08/10 05:24:27;;;;;;;9.25;5.50;;;14.80;99.90;;;;;;4974671;28;20066;-74
2023/08/10 05:26:53;;;;;;;8.68;4.80;;;14.90;99.90;;;;;;4979840;28;20088;-73
2023/08/10 05:29:19;;;;;;;9.48;5.18;;;14.90;99.90;;;;;;4984246;28;20100;-74
2023/08/10 05:31:45;;;;;;;8.68;4.95;;;14.90;99.90;;;;;;4977444;28;20054;-73
2023/08/10 05:34:10;;;;;;;7.82;5.18;;;14.90;99.90;;;;;;4966136;28;20108;-74
2023/08/10 05:36:36;;;;;;;9.43;4.82;;;14.90;99.90;;;;;;4967665;28;20482;-73
2023/08/10 05:39:03;;;;;;;8.65;5.30;;;15.00;99.90;;;;;;4980548;28;20573;-76
2023/08/10 05:41:29;;;;;;;8.20;4.95;;;15.00;99.90;;;;;;4987598;28;20108;-72
2023/08/10 05:43:54;;;;;;;8.02;5.13;;;15.10;99.90;;;;;;4989207;28;20050;-72
2023/08/10 05:46:20;;;;;;;9.50;4.80;;;15.10;99.90;;;;;;4990740;28;20053;-72
2023/08/10 05:48:49;;;;;;;8.55;5.13;;;15.10;99.90;;;;;;4971667;28;20046;-72
2023/08/10 05:51:14;;;;;;;10.70;5.03;;;15.20;99.90;;;;;;4990586;28;20035;-72
2023/08/10 05:53:41;;;;;;;9.93;5.38;;;15.20;99.90;;;;;;4990376;28;20476;-74
2023/08/10 05:56:06;;;;;;;10.45;5.45;;;15.30;99.90;;;;;;4992463;28;20058;-74
2023/08/10 05:58:32;;;;;;;10.18;5.95;;;15.30;99.90;;;;;;4982742;28;20104;-75
2023/08/10 06:00:58;;;;;;;10.13;5.70;;;15.30;99.90;;;;;;4968083;28;20553;-75
2023/08/10 06:03:24;;;;;;;12.52;6.22;;;15.40;99.90;;;;;;4989050;28;20050;-75
2023/08/10 06:05:49;;;;;;;10.45;5.43;;;15.50;99.90;;;;;;4970083;28;20038;-76
2023/08/10 06:08:15;;;;;;;7.82;5.65;;;15.50;99.90;;;;;;4981923;28;20057;-74
2023/08/10 06:10:41;;;;;;;9.35;5.53;;;15.50;99.90;;;;;;4991024;28;20086;-76
2023/08/10 06:13:07;;;;;;;10.43;5.30;;;15.60;99.90;;;;;;4972849;28;20158;-76
2023/08/10 06:15:33;;;;;;;10.63;5.00;;;15.60;99.90;;;;;;4988080;28;20574;-77
2023/08/10 06:17:59;;;;;;;5.90;4.40;;;15.70;99.90;;;;;;4984050;28;20050;-76
2023/08/10 06:20:28;;;;;;;8.52;4.78;;;15.80;99.90;;;;;;4978936;28;20043;-76
2023/08/10 06:22:54;;;;;;;7.53;4.72;;;15.80;99.90;;;;;;4990349;28;20038;-77
2023/08/10 06:25:20;;;;;;;10.57;4.68;;;15.80;99.90;;;;;;4963219;28;20103;-76
2023/08/10 06:27:47;;;;;;;9.00;4.30;;;15.90;99.90;;;;;;4985755;28;20054;-75
2023/08/10 06:30:16;;;;;;;7.35;4.28;;;15.90;99.90;;;;;;4980788;28;20042;-76
2023/08/10 06:32:42;;;;;;;8.40;3.95;;;15.90;99.90;;;;;;4984953;28;20050;-73
2023/08/10 06:35:09;;;;;;;7.90;3.70;;;15.90;99.90;;;;;;4986335;28;20053;-82
2023/08/10 06:37:35;;;;;;;6.10;3.73;;;15.90;99.90;;;;;;4985499;28;20047;-84
2023/08/10 06:40:06;;;;;;;8.00;4.30;;;15.90;99.90;;;;;;4983743;28;20085;-84
2023/08/10 06:42:33;;;;;;;7.20;3.85;;;15.90;99.90;;;;;;4985390;28;20050;-82
2023/08/10 06:44:58;;;;;;;10.68;3.90;;;16.00;99.90;;;;;;4988293;28;20046;-83
2023/08/10 06:47:24;;;;;;;10.45;4.03;;;16.10;99.90;;;;;;4989475;28;20450;-85
2023/08/10 06:49:50;;;;;;;8.75;3.95;;;16.20;99.90;;;;;;4978385;28;20034;-86
2023/08/10 06:52:15;;;;;;;7.70;3.90;;;16.20;99.90;;;;;;4987020;28;20046;-85
2023/08/10 06:54:41;;;;;;;6.22;3.20;;;16.30;99.90;;;;;;4978663;28;20065;-84
2023/08/10 06:57:07;;;;;;;7.88;3.20;;;16.40;99.90;;;;;;4977547;28;20099;-80
2023/08/10 06:59:33;;;;;;;8.13;3.75;;;16.50;99.90;;;;;;4970577;28;20092;-75
2023/08/10 07:01:58;;;;;;;7.88;3.75;;;16.60;99.90;;;;;;4974456;28;20058;-77
2023/08/10 07:04:24;;;;;;;7.22;3.00;;;16.70;99.90;;;;;;4981503;28;20049;-74
2023/08/10 07:06:51;;;;;;;5.97;2.90;;;16.70;99.90;;;;;;4988974;28;20133;-75
2023/08/10 07:09:16;;;;;;;9.05;2.63;;;16.70;99.90;;;;;;4971168;28;20856;-75
2023/08/10 07:11:42;;;;;;;8.05;2.90;;;16.80;99.90;;;;;;4970899;28;20059;-74
2023/08/10 07:14:08;;;;;;;7.38;2.55;;;16.90;99.90;;;;;;4972486;28;20536;-75
2023/08/10 07:16:33;;;;;;;5.22;2.03;;;16.90;99.90;;;;;;4987628;28;20039;-75
2023/08/10 07:18:59;;;;;;;5.60;2.00;;;17.00;99.90;;;;;;4977936;28;20054;-74
2023/08/10 07:21:25;;;;;;;6.40;1.60;;;17.00;99.90;;;;;;4966864;28;20161;-74
2023/08/10 07:23:50;;;;;;;4.78;1.83;;;17.10;99.90;;;;;;4967869;28;20054;-74
2023/08/10 07:26:16;;;;;;;6.28;1.98;;;17.10;99.90;;;;;;4975810;28;20046;-74
2023/08/10 07:28:43;;;;;;;6.57;2.67;;;17.20;99.90;;;;;;4985971;28;20714;-74
2023/08/10 07:31:09;;;;;;;6.82;2.33;;;17.30;99.90;;;;;;4979768;28;20057;-74
2023/08/10 07:33:34;;;;;;;8.90;2.35;;;17.30;99.90;;;;;;4971794;28;20118;-74
2023/08/10 07:36:00;;;;;;;6.03;2.15;;;17.40;99.90;;;;;;4963567;28;20058;-76
2023/08/10 07:38:26;;;;;;;6.15;2.13;;;17.50;99.90;;;;;;4987517;28;20050;-82
2023/08/10 07:40:51;;;;;;;5.97;2.15;;;17.50;99.90;;;;;;4981171;28;20042;-79
2023/08/10 07:43:17;;;;;;;4.95;2.00;;;17.50;99.90;;;;;;4980676;28;20398;-81
2023/08/10 07:45:43;;;;;;;8.93;2.00;;;17.60;99.90;;;;;;4970073;28;20074;-84
2023/08/10 07:48:08;;;;;;;7.15;1.80;;;17.70;99.90;;;;;;4967880;28;20125;-84
2023/08/10 07:50:34;;;;;;;6.68;1.95;;;17.70;99.90;;;;;;4982674;28;20177;-83
2023/08/10 07:53:02;;;;;;;8.70;1.90;;;17.80;99.90;;;;;;4977473;28;20042;-82
2023/08/10 07:55:27;;;;;;;5.82;1.80;;;17.80;99.90;;;;;;4977150;28;20041;-78
2023/08/10 07:57:53;;;;;;;8.35;1.90;;;17.90;99.90;;;;;;4980070;28;20137;-74
2023/08/10 08:00:19;;;;;;;6.50;2.10;;;18.00;99.90;;;;;;4987844;28;20058;-82
2023/08/10 08:02:45;;;;;;;3.90;1.70;;;18.10;99.90;;;;;;4978240;28;20049;-84
2023/08/10 08:05:11;;;;;;;4.18;1.40;;;18.10;99.90;;;;;;4976024;28;20513;-84
2023/08/10 08:07:37;;;;;;;6.80;1.83;;;18.20;99.90;;;;;;4981290;28;20043;-79
2023/08/10 08:10:03;;;;;;;6.18;1.63;;;18.30;99.90;;;;;;4981483;28;20117;-80
2023/08/10 08:12:29;;;;;;;6.63;2.00;;;18.40;99.90;;;;;;4977746;28;20042;-79
2023/08/10 08:14:55;;;;;;;6.63;1.75;;;18.50;99.90;;;;;;4983430;28;20046;-78
2023/08/10 08:17:22;;;;;;;7.72;2.38;;;18.50;99.90;;;;;;4981105;28;20097;-79
2023/08/10 08:19:48;;;;;;;5.53;1.90;;;18.60;99.90;;;;;;4977600;28;20046;-78
2023/08/10 08:22:14;;;;;;;3.55;1.33;;;18.60;99.90;;;;;;4954997;28;20042;-78
2023/08/10 08:24:41;;;;;;;4.38;1.27;;;18.60;99.90;;;;;;4979562;28;20057;-78
2023/08/10 08:27:06;;;;;;;5.50;1.70;;;18.70;99.90;;;;;;4984045;28;20418;-78
2023/08/10 08:29:34;;;;;;;5.25;1.52;;;18.70;99.90;;;;;;4972971;28;20038;-78
2023/08/10 08:32:00;;;;;;;5.38;1.40;;;18.70;99.90;;;;;;4981458;28;20046;-79
2023/08/10 08:34:26;;;;;;;4.63;1.67;;;18.80;99.90;;;;;;4980488;28;20053;-78
2023/08/10 08:36:51;;;;;;;6.78;1.55;;;18.80;99.90;;;;;;4962137;28;20053;-78
2023/08/10 08:39:17;;;;;;;7.60;2.03;;;18.80;99.90;;;;;;4974178;28;20121;-78
2023/08/10 08:41:45;;;;;;;5.97;2.05;;;18.80;99.90;;;;;;4973796;28;20038;-78
2023/08/10 08:44:11;;;;;;;6.85;1.70;;;18.80;99.90;;;;;;4970236;28;20035;-78
2023/08/10 08:46:43;;;;;;;7.05;1.90;;;18.90;99.90;;;;;;4972389;28;20054;-79
2023/08/10 08:49:09;;;;;;;6.43;2.10;;;18.90;99.90;;;;;;4980339;28;20190;-78
2023/08/10 08:51:36;;;;;;;5.18;1.90;;;19.00;99.90;;;;;;4979853;28;20454;-78
2023/08/10 08:54:02;;;;;;;6.80;2.08;;;19.10;99.90;;;;;;4970997;28;20047;-78
2023/08/10 08:56:28;;;;;;;5.22;1.50;;;19.10;99.90;;;;;;4970224;28;20038;-78
2023/08/10 08:58:54;;;;;;;6.03;2.00;;;19.10;99.90;;;;;;4981226;28;20050;-79
2023/08/10 09:01:21;;;;;;;5.22;1.77;;;19.20;99.90;;;;;;4981388;28;20050;-78
2023/08/10 09:03:48;;;;;;;5.90;1.77;;;19.20;99.90;;;;;;4979054;28;20185;-78
2023/08/10 09:06:14;;;;;;;5.82;1.33;;;19.20;99.90;;;;;;4980348;28;20127;-78
2023/08/10 09:08:41;;;;;;;5.90;1.97;;;19.20;99.90;;;;;;4977270;28;20181;-79
2023/08/10 09:11:08;;;;;;;7.65;1.70;;;19.20;99.90;;;;;;4989082;28;20371;-78
2023/08/10 09:13:34;;;;;;;4.57;1.88;;;19.20;99.90;;;;;;4974948;28;20043;-78
2023/08/10 09:16:18;;;;;;;3.83;1.58;;;19.10;99.90;;;;;;4969058;28;20065;-78
2023/08/10 09:18:44;;;;;;;3.42;1.60;;;19.10;99.90;;;;;;4960969;28;20075;-78
2023/08/10 09:21:12;;;;;;;6.78;1.70;;;19.10;99.90;;;;;;4969134;28;20055;-78
2023/08/10 09:23:37;;;;;;;4.70;1.63;;;19.10;99.90;;;;;;4973861;28;20096;-78
2023/08/10 09:26:10;;;;;;;7.93;2.15;;;19.00;99.90;;;;;;4973625;28;20089;-78
2023/08/10 09:28:37;;;;;;;8.30;1.75;;;19.00;99.90;;;;;;4974145;28;20048;-80
2023/08/10 09:31:04;;;;;;;7.35;1.90;;;19.00;99.90;;;;;;4982455;28;20378;-78
2023/08/10 09:33:32;;;;;;;7.97;2.25;;;19.10;99.90;;;;;;4967959;28;20042;-79
2023/08/10 09:35:59;;;;;;;5.78;1.60;;;19.00;99.90;;;;;;4971038;28;20070;-78
2023/08/10 09:38:25;;;;;;;6.32;1.88;;;19.00;99.90;;;;;;4982926;28;20081;-83
2023/08/10 09:41:13;;;;;;;6.25;1.90;;;19.00;99.90;;;;;;4978817;28;20035;-86
2023/08/10 09:43:41;;;;;;;6.30;1.85;;;19.10;99.90;;;;;;4986112;28;20122;-83
2023/08/10 09:46:09;;;;;;;6.90;2.08;;;19.00;99.90;;;;;;4984963;28;20046;-85
2023/08/10 09:48:44;;;;;;;5.00;1.65;;;19.00;99.90;;;;;;4970634;28;20059;-82
2023/08/10 09:51:11;;;;;;;4.80;1.40;;;18.90;99.90;;;;;;4975586;28;20390;-80
2023/08/10 09:53:37;;;;;;;5.88;1.73;;;18.90;99.90;;;;;;4960295;28;20500;-86
2023/08/10 09:56:07;;;;;;;5.25;1.30;;;18.90;99.90;;;;;;4985708;28;20952;-80
2023/08/10 09:58:36;;;;;;;5.45;1.40;;;18.90;99.90;;;;;;4984263;28;20050;-77
2023/08/10 10:01:05;;;;;;;5.05;1.80;;;19.00;99.90;;;;;;4984031;28;20054;-75
2023/08/10 10:03:33;;;;;;;7.80;2.08;;;19.00;99.90;;;;;;4959459;28;20105;-79
2023/08/10 10:06:00;;;;;;;3.78;1.50;;;19.00;99.90;;;;;;4972551;28;20498;-77
2023/08/10 10:08:26;;;;;;;6.38;1.90;;;19.10;99.90;;;;;;4963863;28;20718;-76
2023/08/10 10:10:58;;;;;;;4.63;1.65;;;19.10;99.90;;;;;;4974772;28;20046;-80
2023/08/10 10:13:25;;;;;;;6.00;1.52;;;19.20;99.90;;;;;;4984502;28;20043;-81
2023/08/10 10:15:53;;;;;;;6.65;1.60;;;19.20;99.90;;;;;;4982372;28;20073;-81
2023/08/10 10:18:19;;;;;;;7.22;1.70;;;19.30;99.90;;;;;;4969871;28;20658;-79
2023/08/10 10:20:45;;;;;;;5.10;1.45;;;19.30;99.90;;;;;;4976887;28;20039;-80
2023/08/10 10:23:16;;;;;;;3.50;1.30;;;19.20;99.90;;;;;;4982334;28;20054;-79
2023/08/10 10:26:02;;;;;;;4.78;1.50;;;19.30;99.90;;;;;;4977522;28;20042;-80
2023/08/10 10:28:31;;;;;;;3.75;1.30;;;19.30;99.90;;;;;;4954738;28;20167;-78
2023/08/10 10:31:10;;;;;;;4.28;1.73;;;19.30;99.90;;;;;;4962666;28;20084;-80
2023/08/10 10:33:38;;;;;;;3.22;1.30;;;19.30;99.90;;;;;;4986588;28;20667;-84
2023/08/10 10:36:07;;;;;;;5.50;1.33;;;19.30;99.90;;;;;;4982775;28;20038;-79
2023/08/10 10:38:33;;;;;;;6.93;2.00;;;19.30;99.90;;;;;;4980034;28;20560;-78
2023/08/10 10:41:30;;;;;;;4.47;1.45;;;19.30;99.90;;;;;;4957298;28;20046;-85
2023/08/10 10:43:58;;;;;;;6.22;1.60;;;19.30;99.90;;;;;;4984128;28;20129;-84
2023/08/10 10:46:33;;;;;;;5.80;1.80;;;19.30;99.90;;;;;;4979861;28;20046;-83
2023/08/10 10:49:07;;;;;;;5.28;1.80;;;19.30;99.90;;;;;;4968214;28;20082;-81
2023/08/10 10:51:47;;;;;;;6.63;1.90;;;19.30;99.90;;;;;;4985609;28;20115;-84
2023/08/10 10:54:13;;;;;;;5.72;1.63;;;19.30;99.90;;;;;;4966915;28;20043;-84
2023/08/10 10:56:39;;;;;;;3.20;1.25;;;19.40;99.90;;;;;;4968357;28;20050;-81
2023/08/10 10:59:04;;;;;;;28.35;7.95;;;19.40;99.90;;;;;;4983120;28;20081;-80
2023/08/10 11:01:30;;;;;;;46.60;12.50;;;19.30;99.90;;;;;;4975086;28;20093;-80
2023/08/10 11:03:56;;;;;;;9.32;2.63;;;19.40;99.90;;;;;;4977089;28;20066;-80
2023/08/10 11:06:25;;;;;;;6.57;1.60;;;19.40;99.90;;;;;;4980488;28;20045;-82
2023/08/10 11:08:53;;;;;;;4.85;1.50;;;19.40;99.90;;;;;;4985366;28;20543;-78
2023/08/10 11:11:19;;;;;;;5.50;1.60;;;19.40;99.90;;;;;;4976564;28;20125;-78
2023/08/10 11:13:45;;;;;;;3.60;1.40;;;19.30;99.90;;;;;;4986722;28;20442;-77
2023/08/10 11:16:10;;;;;;;5.18;1.40;;;19.30;99.90;;;;;;4953461;28;20042;-77
2023/08/10 11:18:41;;;;;;;4.15;1.40;;;19.20;99.90;;;;;;4977903;28;20042;-77
2023/08/10 11:21:08;;;;;;;4.32;1.60;;;19.20;99.90;;;;;;4987983;28;20053;-77
2023/08/10 11:23:34;;;;;;;7.43;2.00;;;19.20;99.90;;;;;;4984414;28;20046;-77
2023/08/10 11:26:02;;;;;;;7.53;2.20;;;19.20;99.90;;;;;;4986153;28;20053;-77
2023/08/10 11:28:28;;;;;;;3.35;1.73;;;19.20;99.90;;;;;;4987905;28;20046;-77
2023/08/10 11:31:00;;;;;;;7.00;1.90;;;19.20;99.90;;;;;;4971155;28;20050;-77
2023/08/10 11:33:26;;;;;;;22.33;6.50;;;19.20;99.90;;;;;;4976019;28;20042;-77
2023/08/10 11:35:52;;;;;;;8.13;2.35;;;19.20;99.90;;;;;;4971770;28;20558;-78
2023/08/10 11:38:19;;;;;;;4.93;1.60;;;19.20;99.90;;;;;;4976164;28;20721;-77
2023/08/10 11:40:45;;;;;;;5.32;1.70;;;19.30;99.90;;;;;;4964827;28;20053;-78
2023/08/10 11:43:15;;;;;;;4.65;1.60;;;19.30;99.90;;;;;;4981555;28;20047;-82
2023/08/10 11:45:42;;;;;;;2.15;1.48;;;19.30;99.90;;;;;;4981180;28;20104;-76
2023/08/10 11:48:12;;;;;;;;;;;19.40;99.90;;;;;;4975120;28;20125;-79
2023/08/10 11:50:39;;;;;;;6.15;2.13;;;19.50;99.90;;;;;;4974076;28;20004;-81
2023/08/10 11:53:16;;;;;;;5.75;2.10;;;19.50;99.90;;;;;;4979797;28;20035;-76
2023/08/10 11:55:51;;;;;;;5.35;1.52;;;19.60;99.90;;;;;;4978118;28;20042;-77
2023/08/10 11:58:18;;;;;;;7.05;1.80;;;19.60;99.90;;;;;;4967837;28;20069;-77
2023/08/10 12:00:53;;;;;;;6.88;1.50;;;19.60;99.90;;;;;;4981257;28;20077;-77
2023/08/10 12:03:25;;;;;;;3.45;1.48;;;19.70;99.90;;;;;;4983010;28;20062;-77
2023/08/10 12:05:53;;;;;;;5.22;1.75;;;19.70;99.90;;;;;;4970149;28;20038;-77
2023/08/10 12:08:27;;;;;;;35.35;12.75;;;19.80;99.90;;;;;;4965909;28;20058;-78
2023/08/10 12:11:01;;;;;;;5.95;2.70;;;19.80;99.90;;;;;;4980302;28;20594;-78
2023/08/10 12:13:27;;;;;;;6.30;2.10;;;19.90;99.90;;;;;;4977424;28;20058;-77
2023/08/10 12:15:54;;;;;;;4.43;1.70;;;19.90;99.90;;;;;;4972936;28;20529;-78
2023/08/10 12:18:21;;;;;;;7.60;2.10;;;20.00;99.90;;;;;;4971900;28;20070;-80
2023/08/10 12:20:48;;;;;;;;;;;20.00;99.90;;;;;;4973765;28;20038;-79
2023/08/10 12:23:14;;;;;;;8.85;2.03;;;20.00;99.90;;;;;;4976031;28;20344;-79
2023/08/10 12:25:44;;;;;;;6.18;2.60;;;20.10;99.90;;;;;;4963825;28;20156;-81
2023/08/10 12:28:10;;;;;;;6.25;2.25;;;20.10;99.90;;;;;;4979680;28;20058;-79
2023/08/10 12:30:36;;;;;;;6.57;2.40;;;20.10;99.90;;;;;;4965407;28;20478;-79
2023/08/10 12:33:03;;;;;;;9.10;4.20;;;20.20;99.90;;;;;;4978138;28;20045;-79
2023/08/10 12:35:29;;;;;;;6.43;2.80;;;20.30;99.90;;;;;;4978189;28;20042;-79
2023/08/10 12:37:54;;;;;;;6.00;2.30;;;20.40;99.90;;;;;;4979114;28;20045;-80
2023/08/10 12:40:21;;;;;;;7.88;2.53;;;20.40;99.90;;;;;;4985141;28;20038;-79
2023/08/10 12:42:47;;;;;;;5.30;2.10;;;20.50;99.90;;;;;;4970696;28;20046;-79
2023/08/10 12:45:13;;;;;;;4.70;2.50;;;20.60;99.90;;;;;;4975929;28;20301;-79
2023/08/10 12:47:42;;;;;;;9.98;3.00;;;20.60;99.90;;;;;;4980781;28;20046;-79